Terminal Aerodrome Forecast
Issued by NWS Charleston, WV

Current Version | Previous Version | Text Only | Print | Product List | Glossary Off
Versions: 1 2 3 4 5 6 7 8 9 10 11 12 13 14 15 16 17 18 19 20 21 22 23 24

000
FTUS41 KRLX 302338
TAFBKW
TAF
KBKW 302338Z 0100/0124 33010G20KT 3SM TSRA BKN040CB
     FM010100 VRB03KT 6SM SHRA VCTS BKN025CB
     FM010200 25004KT 6SM BR BKN025
     FM010700 24005KT 4SM BR BKN020
     FM011200 23004KT P6SM BKN010
     FM011500 26005KT P6SM BKN015
     FM011900 28008KT P6SM BKN035=

USA.gov is the U.S. government's official web portal to all federal, state and local government web resources and services.